createdAt,value
2023-03-21T00:01:00.785Z,9.00
2023-03-21T00:03:51.604Z,9.60
2023-03-21T00:06:41.610Z,8.97
2023-03-21T00:09:30.372Z,8.70
2023-03-21T00:12:21.065Z,9.07
2023-03-21T00:15:11.549Z,7.40
2023-03-21T00:18:03.597Z,8.80
2023-03-21T00:21:29.298Z,8.17
2023-03-21T00:24:09.610Z,8.37
2023-03-21T00:27:10.724Z,8.77
2023-03-21T00:30:07.873Z,8.57
2023-03-21T00:32:57.029Z,8.30
2023-03-21T00:36:02.500Z,8.00
2023-03-21T00:38:53.482Z,7.83
2023-03-21T00:41:43.635Z,7.97
2023-03-21T00:44:36.688Z,9.40
2023-03-21T00:47:25.986Z,8.33
2023-03-21T00:50:14.811Z,8.77
2023-03-21T00:53:03.321Z,8.33
2023-03-21T00:55:51.867Z,8.40
2023-03-21T00:58:41.690Z,7.80
2023-03-21T01:01:34.509Z,8.20
2023-03-21T01:04:26.411Z,9.00
2023-03-21T01:07:14.995Z,8.90
2023-03-21T01:10:03.765Z,8.20
2023-03-21T01:12:52.158Z,8.80
2023-03-21T01:15:46.882Z,9.27
2023-03-21T01:18:37.176Z,8.23
2023-03-21T01:21:25.707Z,8.30
2023-03-21T01:24:14.212Z,8.60
2023-03-21T01:27:03.490Z,8.43
2023-03-21T01:29:52.012Z,8.60
2023-03-21T01:32:41.856Z,8.17
2023-03-21T01:35:37.438Z,8.40
2023-03-21T01:38:29.671Z,8.60
2023-03-21T01:41:26.223Z,8.80
2023-03-21T01:44:18.334Z,7.70
2023-03-21T01:47:11.988Z,8.80
2023-03-21T01:50:03.438Z,8.00
2023-03-21T01:52:51.999Z,8.57
2023-03-21T01:55:40.947Z,8.97
2023-03-21T01:58:29.967Z,8.33
2023-03-21T02:01:18.790Z,8.20
2023-03-21T02:04:09.153Z,8.63
2023-03-21T02:07:01.928Z,8.00
2023-03-21T02:09:51.253Z,7.37
2023-03-21T02:12:39.744Z,8.20
2023-03-21T02:15:28.295Z,8.07
2023-03-21T02:18:24.502Z,7.83
2023-03-21T02:21:39.829Z,8.50
2023-03-21T02:25:04.205Z,7.80
2023-03-21T02:27:59.651Z,7.80
2023-03-21T02:31:08.437Z,7.00
2023-03-21T02:34:24.062Z,7.70
2023-03-21T02:37:23.560Z,7.60
2023-03-21T02:40:23.764Z,7.93
2023-03-21T02:43:23.418Z,7.40
2023-03-21T02:46:16.698Z,8.00
2023-03-21T02:49:09.387Z,7.80
2023-03-21T02:52:05.469Z,6.80
2023-03-21T02:55:06.005Z,7.03
2023-03-21T02:57:56.477Z,7.40
2023-03-21T03:00:45.353Z,7.57
2023-03-21T03:03:36.894Z,6.87
2023-03-21T03:06:27.796Z,7.20
2023-03-21T03:09:24.245Z,6.50
2023-03-21T03:12:23.604Z,8.03
2023-03-21T03:15:21.946Z,6.10
2023-03-21T03:18:13.530Z,7.70
2023-03-21T03:21:05.276Z,6.63
2023-03-21T03:23:55.828Z,7.73
2023-03-21T03:26:48.530Z,6.93
2023-03-21T03:29:40.443Z,7.00
2023-03-21T03:32:33.128Z,7.30
2023-03-21T03:35:23.735Z,6.50
2023-03-21T03:38:14.146Z,6.40
2023-03-21T03:41:04.427Z,7.10
2023-03-21T03:43:54.932Z,7.43
2023-03-21T03:46:48.749Z,6.43
2023-03-21T03:49:39.403Z,6.40
2023-03-21T03:52:30.462Z,5.77
2023-03-21T03:55:21.575Z,6.03
2023-03-21T03:58:21.120Z,6.60
2023-03-21T04:01:11.641Z,6.50
2023-03-21T04:04:12.569Z,6.60
2023-03-21T04:07:03.464Z,6.90
2023-03-21T04:09:52.050Z,6.97
2023-03-21T04:12:40.534Z,6.50
2023-03-21T04:15:29.029Z,7.03
2023-03-21T04:18:17.551Z,6.90
2023-03-21T04:21:10.713Z,7.10
2023-03-21T04:23:59.673Z,6.63
2023-03-21T04:26:48.413Z,7.27
2023-03-21T04:29:37.249Z,7.30
2023-03-21T04:32:26.422Z,7.60
2023-03-21T04:35:15.396Z,6.80
2023-03-21T04:38:05.532Z,6.57
2023-03-21T04:40:54.186Z,7.40
2023-03-21T04:43:42.698Z,7.17
2023-03-21T04:46:31.436Z,7.03
2023-03-21T04:49:19.917Z,6.97
2023-03-21T04:52:08.454Z,7.03
2023-03-21T04:54:58.355Z,7.03
2023-03-21T04:57:46.845Z,6.63
2023-03-21T05:00:37.519Z,6.83
2023-03-21T05:03:28.406Z,7.37
2023-03-21T05:06:16.977Z,6.57
2023-03-21T05:09:07.042Z,5.90
2023-03-21T05:11:57.332Z,5.90
2023-03-21T05:14:46.110Z,6.43
2023-03-21T05:17:34.672Z,6.13
2023-03-21T05:20:23.215Z,6.00
2023-03-21T05:23:12.192Z,6.93
2023-03-21T05:26:00.664Z,6.20
2023-03-21T05:28:51.495Z,6.10
2023-03-21T05:31:39.942Z,6.20
2023-03-21T05:34:29.078Z,6.13
2023-03-21T05:37:17.566Z,6.50
2023-03-21T05:40:07.635Z,6.63
2023-03-21T05:42:56.179Z,6.00
2023-03-21T05:45:48.375Z,6.70
2023-03-21T05:48:37.314Z,6.30
2023-03-21T05:51:25.817Z,6.83
2023-03-21T05:54:16.708Z,6.50
2023-03-21T05:57:05.648Z,7.60
2023-03-21T05:59:54.174Z,5.83
2023-03-21T06:02:44.684Z,6.17
2023-03-21T06:05:33.375Z,6.40
2023-03-21T06:08:21.867Z,5.90
2023-03-21T06:11:13.888Z,6.40
2023-03-21T06:14:02.386Z,6.20
2023-03-21T06:16:51.062Z,6.00
2023-03-21T06:19:41.018Z,5.60
2023-03-21T06:22:29.534Z,6.00
2023-03-21T06:25:18.247Z,5.40
2023-03-21T06:28:06.706Z,5.07
2023-03-21T06:30:55.332Z,4.40
2023-03-21T06:33:43.919Z,4.93
2023-03-21T06:36:33.762Z,4.87
2023-03-21T06:39:22.514Z,4.70
2023-03-21T06:42:11.404Z,4.53
2023-03-21T06:44:59.853Z,4.47
2023-03-21T06:47:48.345Z,5.03
2023-03-21T06:50:36.998Z,5.37
2023-03-21T06:53:28.053Z,4.90
2023-03-21T06:56:16.936Z,4.93
2023-03-21T06:59:05.512Z,5.23
2023-03-21T07:01:54.428Z,5.33
2023-03-21T07:04:42.890Z,5.50
2023-03-21T07:07:31.430Z,5.57
2023-03-21T07:10:21.418Z,5.37
2023-03-21T07:13:10.026Z,4.90
2023-03-21T07:15:58.488Z,4.83
2023-03-21T07:18:47.010Z,4.70
2023-03-21T07:21:35.766Z,5.87
2023-03-21T07:24:24.251Z,5.17
2023-03-21T07:27:14.206Z,5.70
2023-03-21T07:30:02.728Z,5.10
2023-03-21T07:32:51.272Z,5.87
2023-03-21T07:35:40.447Z,5.20
2023-03-21T07:38:30.882Z,5.27
2023-03-21T07:41:19.418Z,4.90
2023-03-21T07:44:09.267Z,5.03
2023-03-21T07:46:57.808Z,6.77
2023-03-21T07:49:49.258Z,4.90
2023-03-21T07:52:38.181Z,5.00
2023-03-21T07:55:26.672Z,4.30
2023-03-21T07:58:15.230Z,4.17
2023-03-21T08:01:05.459Z,4.10
2023-03-21T08:03:53.976Z,3.80
2023-03-21T08:06:42.568Z,3.53
2023-03-21T08:09:31.498Z,3.33
2023-03-21T08:12:20.033Z,4.30
2023-03-21T08:15:09.817Z,3.63
2023-03-21T08:18:01.230Z,4.00
2023-03-21T08:20:53.122Z,3.53
2023-03-21T08:23:41.612Z,3.57
2023-03-21T08:26:32.041Z,3.30
2023-03-21T08:29:21.493Z,3.17
2023-03-21T08:32:10.266Z,3.40
2023-03-21T08:35:01.267Z,3.10
2023-03-21T08:37:49.801Z,2.90
2023-03-21T08:40:38.727Z,3.70
2023-03-21T08:43:27.613Z,3.00
2023-03-21T08:46:16.432Z,3.57
2023-03-21T08:49:04.940Z,3.47
2023-03-21T08:51:57.936Z,3.43
2023-03-21T08:54:46.440Z,3.83
2023-03-21T08:57:34.996Z,3.53
2023-03-21T09:00:24.014Z,3.77
2023-03-21T09:03:12.527Z,3.83
2023-03-21T09:06:03.014Z,3.93
2023-03-21T09:08:53.443Z,3.63
2023-03-21T09:11:42.082Z,3.20
2023-03-21T09:14:30.567Z,3.43
2023-03-21T09:17:21.154Z,3.17
2023-03-21T09:20:18.562Z,3.97
2023-03-21T09:23:07.456Z,3.77
2023-03-21T09:25:57.421Z,3.50
2023-03-21T09:28:47.426Z,3.10
2023-03-21T09:31:35.965Z,5.20
2023-03-21T09:34:24.625Z,4.07
2023-03-21T09:37:13.757Z,3.63
2023-03-21T09:40:02.452Z,3.97
2023-03-21T09:42:59.947Z,4.43
2023-03-21T09:45:52.612Z,3.30
2023-03-21T09:48:56.622Z,4.50
2023-03-21T09:51:48.804Z,3.70
2023-03-21T09:54:39.387Z,3.80
2023-03-21T09:57:34.165Z,4.43
2023-03-21T10:00:29.926Z,4.00
2023-03-21T10:03:24.314Z,4.20
2023-03-21T10:06:16.436Z,3.50
2023-03-21T10:09:07.351Z,4.00
2023-03-21T10:11:58.498Z,3.83
2023-03-21T10:14:49.487Z,4.30
2023-03-21T10:17:43.535Z,4.10
2023-03-21T10:20:33.413Z,3.60
2023-03-21T10:23:23.389Z,3.80
2023-03-21T10:26:14.882Z,4.10
2023-03-21T10:29:05.800Z,4.10
2023-03-21T10:31:55.815Z,3.60
2023-03-21T10:34:48.059Z,4.13
2023-03-21T10:37:36.587Z,4.10
2023-03-21T10:40:25.099Z,3.87
2023-03-21T10:43:21.767Z,3.80
2023-03-21T10:46:14.188Z,4.37
2023-03-21T10:49:03.155Z,4.47
2023-03-21T10:51:55.550Z,3.93
2023-03-21T10:54:44.151Z,3.60
2023-03-21T10:57:32.667Z,3.80
2023-03-21T11:00:23.211Z,3.10
2023-03-21T11:03:21.245Z,3.60
2023-03-21T11:06:14.828Z,3.80
2023-03-21T11:09:09.670Z,3.73
2023-03-21T11:12:04.403Z,4.10
2023-03-21T11:14:52.850Z,4.00
2023-03-21T11:17:41.734Z,3.67
2023-03-21T11:20:32.130Z,4.00
2023-03-21T11:23:21.217Z,3.00
2023-03-21T11:26:12.929Z,3.20
2023-03-21T11:29:01.969Z,3.17
2023-03-21T11:31:50.541Z,3.00
2023-03-21T11:34:46.062Z,2.97
2023-03-21T11:37:35.911Z,2.97
2023-03-21T11:40:26.272Z,2.93
2023-03-21T11:43:29.702Z,3.43
2023-03-21T11:46:24.228Z,2.73
2023-03-21T11:49:12.840Z,3.57
2023-03-21T11:52:07.581Z,2.97
2023-03-21T11:55:14.428Z,3.17
2023-03-21T11:58:15.182Z,2.90
2023-03-21T12:01:13.042Z,3.30
2023-03-21T12:04:12.188Z,2.63
2023-03-21T12:07:04.622Z,2.90
2023-03-21T12:09:57.599Z,3.20
2023-03-21T12:12:51.728Z,2.90
2023-03-21T12:15:44.719Z,2.90
2023-03-21T12:18:50.325Z,3.57
2023-03-21T12:21:44.803Z,3.73
2023-03-21T12:24:40.175Z,3.00
2023-03-21T12:27:38.291Z,3.27
2023-03-21T12:30:34.778Z,2.80
2023-03-21T12:33:33.997Z,3.10
2023-03-21T12:36:36.997Z,2.87
2023-03-21T12:39:29.716Z,3.13
2023-03-21T12:42:43.885Z,3.30
2023-03-21T12:45:46.218Z,2.77
2023-03-21T12:48:42.024Z,2.50
2023-03-21T12:51:34.178Z,2.97
2023-03-21T12:54:27.423Z,3.10
2023-03-21T12:57:18.885Z,3.10
2023-03-21T13:00:13.421Z,3.10
2023-03-21T13:03:05.610Z,2.57
2023-03-21T13:05:57.776Z,2.80
2023-03-21T13:08:49.844Z,2.20
2023-03-21T13:11:38.767Z,2.50
2023-03-21T13:14:29.332Z,2.50
2023-03-21T13:17:24.129Z,2.40
2023-03-21T13:20:20.257Z,2.40
2023-03-21T13:23:09.299Z,2.30
2023-03-21T13:25:59.153Z,2.50
2023-03-21T13:28:49.289Z,2.10
2023-03-21T13:31:50.930Z,2.10
2023-03-21T13:34:41.273Z,2.93
2023-03-21T13:37:32.099Z,2.30
2023-03-21T13:40:26.231Z,2.73
2023-03-21T13:43:40.663Z,2.00
2023-03-21T13:46:53.310Z,2.13
2023-03-21T13:49:42.620Z,2.40
2023-03-21T13:52:31.098Z,2.37
2023-03-21T13:55:21.964Z,1.90
2023-03-21T13:58:33.866Z,1.90
2023-03-21T14:01:28.755Z,2.23
2023-03-21T14:04:19.464Z,1.80
2023-03-21T14:07:12.297Z,1.83
2023-03-21T14:10:04.274Z,2.03
2023-03-21T14:12:54.982Z,2.37
2023-03-21T14:15:55.037Z,1.90
2023-03-21T14:18:54.186Z,2.20
2023-03-21T14:21:50.315Z,1.90
2023-03-21T14:24:40.099Z,2.70
2023-03-21T14:27:31.563Z,2.60
2023-03-21T14:30:26.082Z,2.30
2023-03-21T14:33:18.140Z,2.30
2023-03-21T14:36:12.116Z,2.50
2023-03-21T14:39:07.329Z,2.27
2023-03-21T14:41:57.367Z,2.33
2023-03-21T14:44:55.581Z,2.33
2023-03-21T14:47:55.926Z,2.80
2023-03-21T14:50:47.960Z,2.27
2023-03-21T14:53:40.587Z,2.30
2023-03-21T14:56:30.335Z,2.70
2023-03-21T14:59:22.166Z,2.60
2023-03-21T15:02:17.389Z,1.93
2023-03-21T15:05:11.710Z,2.20
2023-03-21T15:08:01.780Z,2.33
2023-03-21T15:11:06.883Z,2.63
2023-03-21T15:13:56.888Z,2.00
2023-03-21T15:16:45.644Z,1.90
2023-03-21T15:19:37.000Z,1.93
2023-03-21T15:22:33.337Z,2.10
2023-03-21T15:25:25.209Z,2.57
2023-03-21T15:28:15.689Z,2.30
2023-03-21T15:31:05.269Z,1.90
2023-03-21T15:33:55.263Z,1.70
2023-03-21T15:36:46.336Z,1.93
2023-03-21T15:39:36.269Z,2.43
2023-03-21T15:42:29.919Z,1.80
2023-03-21T15:45:23.006Z,2.27
2023-03-21T15:48:14.770Z,1.90
2023-03-21T15:51:05.642Z,1.70
2023-03-21T15:53:55.137Z,1.80
2023-03-21T15:56:45.973Z,2.17
2023-03-21T15:59:36.805Z,2.10
2023-03-21T16:02:31.292Z,1.80
2023-03-21T16:05:25.252Z,1.70
2023-03-21T16:08:24.444Z,1.50
2023-03-21T16:11:20.260Z,3.00
2023-03-21T16:14:08.881Z,2.30
2023-03-21T16:16:59.969Z,2.20
2023-03-21T16:19:49.807Z,2.17
2023-03-21T16:22:38.333Z,2.00
2023-03-21T16:25:27.013Z,1.60
2023-03-21T16:28:17.475Z,1.63
2023-03-21T16:31:06.132Z,2.23
2023-03-21T16:33:54.947Z,2.67
2023-03-21T16:36:44.853Z,1.60
2023-03-21T16:39:33.324Z,2.17
2023-03-21T16:42:21.815Z,2.07
2023-03-21T16:45:11.796Z,2.17
2023-03-21T16:48:00.949Z,2.40
2023-03-21T16:50:49.796Z,2.70
2023-03-21T16:53:39.895Z,2.20
2023-03-21T16:56:31.056Z,2.17
2023-03-21T16:59:19.613Z,2.57
2023-03-21T17:02:16.400Z,2.27
2023-03-21T17:05:07.100Z,2.20
2023-03-21T17:07:56.084Z,2.03
2023-03-21T17:10:46.788Z,2.50
2023-03-21T17:13:35.569Z,2.50
2023-03-21T17:16:27.148Z,2.60
2023-03-21T17:19:17.829Z,2.60
2023-03-21T17:22:06.724Z,2.67
2023-03-21T17:24:55.302Z,2.97
2023-03-21T17:27:45.754Z,2.50
2023-03-21T17:30:36.280Z,2.90
2023-03-21T17:33:24.872Z,2.70
2023-03-21T17:36:16.088Z,2.77
2023-03-21T17:39:06.865Z,3.10
2023-03-21T17:41:56.840Z,4.07
2023-03-21T17:44:46.741Z,4.60
2023-03-21T17:47:35.532Z,3.63
2023-03-21T17:50:26.398Z,4.30
2023-03-21T17:53:15.021Z,4.13
2023-03-21T17:56:03.588Z,3.30
2023-03-21T17:58:52.149Z,3.50
2023-03-21T18:01:42.568Z,3.20
2023-03-21T18:04:31.483Z,3.70
2023-03-21T18:07:38.105Z,4.90
2023-03-21T18:10:28.774Z,4.40
2023-03-21T18:13:17.498Z,4.60
2023-03-21T18:16:06.809Z,7.20
2023-03-21T18:18:56.755Z,6.93
2023-03-21T18:21:46.065Z,7.73
2023-03-21T18:24:34.685Z,7.77
2023-03-21T18:27:23.251Z,8.60
2023-03-21T18:30:36.227Z,7.27
2023-03-21T18:33:25.003Z,6.50
2023-03-21T18:36:24.026Z,6.33
2023-03-21T18:39:13.281Z,5.40
2023-03-21T18:42:03.713Z,5.40
2023-03-21T18:44:54.442Z,5.60
2023-03-21T18:47:43.282Z,5.00
2023-03-21T18:50:32.112Z,4.70
2023-03-21T18:53:22.480Z,3.93
2023-03-21T18:56:11.721Z,2.97
2023-03-21T18:59:03.255Z,4.50
2023-03-21T19:01:52.091Z,3.10
2023-03-21T19:04:40.761Z,3.10
2023-03-21T19:07:29.912Z,4.13
2023-03-21T19:10:21.843Z,4.03
2023-03-21T19:13:10.484Z,3.87
2023-03-21T19:15:59.063Z,3.50
2023-03-21T19:18:54.955Z,4.03
2023-03-21T19:21:47.021Z,3.70
2023-03-21T19:24:35.591Z,3.77
2023-03-21T19:27:25.798Z,5.67
2023-03-21T19:30:16.084Z,5.00
2023-03-21T19:33:05.106Z,5.53
2023-03-21T19:36:10.693Z,5.63
2023-03-21T19:38:59.580Z,5.90
2023-03-21T19:41:48.222Z,5.13
2023-03-21T19:44:38.373Z,5.17
2023-03-21T19:47:27.076Z,5.40
2023-03-21T19:50:47.368Z,6.47
2023-03-21T19:53:24.515Z,6.10
2023-03-21T19:56:21.562Z,5.90
2023-03-21T19:59:12.232Z,5.70
2023-03-21T20:02:25.034Z,7.00
2023-03-21T20:05:10.917Z,5.40
2023-03-21T20:07:59.640Z,6.13
2023-03-21T20:10:48.171Z,5.73
2023-03-21T20:13:36.741Z,5.67
2023-03-21T20:16:25.299Z,5.67
2023-03-21T20:19:16.186Z,5.53
2023-03-21T20:22:07.995Z,5.93
2023-03-21T20:25:08.762Z,5.20
2023-03-21T20:28:14.697Z,5.77
2023-03-21T20:31:05.184Z,5.40
2023-03-21T20:33:53.732Z,5.27
2023-03-21T20:36:44.104Z,5.43
2023-03-21T20:39:32.681Z,5.30
2023-03-21T20:42:21.211Z,4.93
2023-03-21T20:45:11.899Z,5.30
2023-03-21T20:48:00.735Z,5.37
2023-03-21T20:50:51.867Z,4.83
2023-03-21T20:53:41.868Z,5.43
2023-03-21T20:56:30.817Z,5.30
2023-03-21T20:59:26.589Z,4.50
2023-03-21T21:02:15.983Z,4.70
2023-03-21T21:05:27.821Z,4.53
2023-03-21T21:08:18.992Z,5.00
2023-03-21T21:11:56.906Z,5.03
2023-03-21T21:14:17.695Z,4.77
2023-03-21T21:17:23.814Z,4.37
2023-03-21T21:20:17.475Z,4.30
2023-03-21T21:23:06.195Z,5.33
2023-03-21T21:25:55.495Z,4.70
2023-03-21T21:28:46.755Z,5.40
2023-03-21T21:31:35.247Z,5.30
2023-03-21T21:34:24.397Z,4.83
2023-03-21T21:37:12.946Z,5.47
2023-03-21T21:40:12.619Z,4.90
2023-03-21T21:43:03.536Z,5.30
2023-03-21T21:45:53.933Z,4.70
2023-03-21T21:48:42.537Z,6.00
2023-03-21T21:51:34.012Z,6.37
2023-03-21T21:54:22.522Z,6.43
2023-03-21T21:57:13.542Z,6.07
2023-03-21T22:00:06.132Z,7.10
2023-03-21T22:02:56.120Z,7.60
2023-03-21T22:05:45.374Z,6.83
2023-03-21T22:08:33.944Z,7.27
2023-03-21T22:11:22.372Z,6.07
2023-03-21T22:14:10.928Z,6.60
2023-03-21T22:17:00.052Z,8.00
2023-03-21T22:20:04.325Z,6.47
2023-03-21T22:22:56.617Z,7.53
2023-03-21T22:25:50.897Z,6.20
2023-03-21T22:28:42.149Z,7.03
2023-03-21T22:31:32.167Z,6.53
2023-03-21T22:34:21.681Z,6.80
2023-03-21T22:37:11.549Z,6.60
2023-03-21T22:40:00.180Z,6.67
2023-03-21T22:42:48.694Z,7.57
2023-03-21T22:45:37.265Z,7.13
2023-03-21T22:48:25.885Z,8.00
2023-03-21T22:51:14.426Z,7.23
2023-03-21T22:54:04.350Z,7.40
2023-03-21T22:56:52.809Z,7.47
2023-03-21T22:59:41.654Z,7.90
2023-03-21T23:02:30.327Z,6.70
2023-03-21T23:05:19.025Z,7.50
2023-03-21T23:08:07.507Z,6.40
2023-03-21T23:10:57.431Z,6.50
2023-03-21T23:13:51.598Z,7.30
2023-03-21T23:16:47.510Z,7.10
2023-03-21T23:19:36.070Z,6.70
2023-03-21T23:22:24.621Z,6.77
2023-03-21T23:25:13.585Z,7.57
2023-03-21T23:28:03.518Z,7.57
2023-03-21T23:30:51.961Z,8.40
2023-03-21T23:33:40.460Z,7.77
2023-03-21T23:36:29.420Z,7.67
2023-03-21T23:39:18.603Z,8.50
2023-03-21T23:42:07.458Z,7.33
2023-03-21T23:44:57.288Z,7.97
2023-03-21T23:47:45.803Z,8.13
2023-03-21T23:50:34.714Z,7.33
2023-03-21T23:53:23.289Z,7.87
2023-03-21T23:56:13.235Z,8.07
2023-03-21T23:59:01.710Z,7.93
